< < Back
Terminal Aerodrome Forecast


Current Version              Previous Versions:   1  2  3  4  5  6  7  8  9  

Terminal Aerodrome Forecast

842
FTUS42 KCHS 302300
TAFCHS
TAF
KCHS 302334Z 3100/3124 14007KT P6SM FEW025
     FM310100 VRB03KT P6SM SKC
     FM310800 00000KT 6SM BR FEW003 SCT015
     FM311300 VRB05KT P6SM SCT020
     FM311800 17009KT P6SM SCT035=

Latest METAR

075
SAUS80 KWBC 310400
MTRCHS
METAR KCHS 310356Z 00000KT 10SM FEW025 27/23 A3015 RMK AO2 SLP209
T02670233 $


USA.gov is the U.S. government's official web portal to all federal, state and local government web resources and services.